Time;durP1;ratioP1;P1;durP2;ratioP2;P2;SDS_P1;SDS_P2;PMS_P1;PMS_P2;Temp;Humidity;BMP_temperature;BMP_pressure;BME280_temperature;BME280_humidity;BME280_pressure;Samples;Min_cycle;Max_cycle;Signal;HPM_P1;HPM_P2
2023/12/08 00:00:22;;;;;;;14.73;9.40;;;;;;;;;;4989057;28;20180;-66
2023/12/08 00:02:47;;;;;;;18.83;10.30;;;;;;;;;;4999127;28;20214;-66
2023/12/08 00:05:13;;;;;;;15.10;10.40;;;;;;;;;;4991891;28;20180;-68
2023/12/08 00:07:40;;;;;;;18.07;10.77;;;;;;;;;;4992533;28;20226;-66
2023/12/08 00:10:05;;;;;;;16.70;10.77;;;;;;;;;;4984436;28;20267;-66
2023/12/08 00:12:30;;;;;;;17.23;9.57;;;;;;;;;;4997206;28;20730;-67
2023/12/08 00:14:56;;;;;;;16.90;11.43;;;;;;;;;;4996234;28;20179;-67
2023/12/08 00:17:21;;;;;;;18.77;11.50;;;;;;;;;;4995120;28;20279;-66
2023/12/08 00:19:46;;;;;;;18.30;11.07;;;;;;;;;;5001676;28;20278;-66
2023/12/08 00:22:11;;;;;;;19.93;11.77;;;;;;;;;;4995415;28;20179;-67
2023/12/08 00:24:37;;;;;;;18.80;11.23;;;;;;;;;;4988165;28;20250;-66
2023/12/08 00:27:02;;;;;;;16.80;10.87;;;;;;;;;;4985021;28;20200;-66
2023/12/08 00:29:27;;;;;;;19.33;11.27;;;;;;;;;;4992835;28;20206;-66
2023/12/08 00:31:53;;;;;;;16.33;11.77;;;;;;;;;;4994200;28;20203;-65
2023/12/08 00:34:18;;;;;;;22.23;12.23;;;;;;;;;;4994376;28;20180;-65
2023/12/08 00:36:43;;;;;;;19.50;12.30;;;;;;;;;;4990396;28;20203;-66
2023/12/08 00:39:08;;;;;;;17.87;12.50;;;;;;;;;;4997633;28;20172;-66
2023/12/08 00:41:34;;;;;;;20.70;11.57;;;;;;;;;;4995052;28;20175;-66
2023/12/08 00:43:59;;;;;;;18.27;11.23;;;;;;;;;;4997485;28;20179;-66
2023/12/08 00:46:24;;;;;;;20.50;11.97;;;;;;;;;;4991506;28;20275;-67
2023/12/08 00:48:49;;;;;;;21.00;12.90;;;;;;;;;;4990432;28;20184;-67
2023/12/08 00:51:14;;;;;;;21.40;12.93;;;;;;;;;;4989958;28;20655;-68
2023/12/08 00:53:41;;;;;;;19.70;11.67;;;;;;;;;;4999827;28;20241;-67
2023/12/08 00:56:06;;;;;;;18.20;12.13;;;;;;;;;;5000144;28;20225;-67
2023/12/08 00:58:32;;;;;;;21.17;12.80;;;;;;;;;;5003175;28;20650;-67
2023/12/08 01:00:57;;;;;;;20.60;12.10;;;;;;;;;;4999288;28;20261;-65
2023/12/08 01:03:22;;;;;;;20.63;11.70;;;;;;;;;;5002391;28;20168;-66
2023/12/08 01:05:48;;;;;;;21.27;12.70;;;;;;;;;;5003319;28;20183;-66
2023/12/08 01:08:13;;;;;;;18.90;12.00;;;;;;;;;;4996218;28;20191;-65
2023/12/08 01:10:38;;;;;;;19.33;12.23;;;;;;;;;;5001388;28;20214;-68
2023/12/08 01:13:03;;;;;;;20.27;12.10;;;;;;;;;;5004611;28;20569;-66
2023/12/08 01:15:28;;;;;;;21.53;12.77;;;;;;;;;;5001232;28;20179;-66
2023/12/08 01:17:53;;;;;;;20.30;11.83;;;;;;;;;;4998243;28;20191;-66
2023/12/08 01:20:19;;;;;;;24.23;13.47;;;;;;;;;;4996482;28;20179;-67
2023/12/08 01:22:44;;;;;;;23.43;12.93;;;;;;;;;;5003874;28;20193;-67
2023/12/08 01:25:09;;;;;;;22.40;12.87;;;;;;;;;;4999585;28;20670;-66
2023/12/08 01:27:35;;;;;;;20.90;13.17;;;;;;;;;;5006919;28;20202;-66
2023/12/08 01:30:00;;;;;;;21.80;11.70;;;;;;;;;;5003053;28;20262;-65
2023/12/08 01:32:25;;;;;;;22.33;12.30;;;;;;;;;;5004478;28;20203;-66
2023/12/08 01:34:50;;;;;;;24.83;13.20;;;;;;;;;;4994393;28;20571;-66
2023/12/08 01:37:15;;;;;;;21.43;13.40;;;;;;;;;;4992895;28;20219;-66
2023/12/08 01:39:40;;;;;;;20.50;13.17;;;;;;;;;;4996952;28;20232;-66
2023/12/08 01:42:06;;;;;;;22.43;13.17;;;;;;;;;;4999840;28;20209;-66
2023/12/08 01:44:31;;;;;;;22.27;12.37;;;;;;;;;;5002975;28;20647;-66
2023/12/08 01:46:56;;;;;;;24.23;13.20;;;;;;;;;;5003630;28;20203;-66
2023/12/08 01:49:22;;;;;;;21.93;12.20;;;;;;;;;;5003631;28;20634;-66
2023/12/08 01:51:47;;;;;;;24.17;14.57;;;;;;;;;;5008560;28;20218;-65
2023/12/08 01:54:14;;;;;;;23.27;13.20;;;;;;;;;;5000371;28;20263;-66
2023/12/08 01:56:40;;;;;;;21.90;12.87;;;;;;;;;;4990649;28;20289;-66
2023/12/08 01:59:05;;;;;;;20.53;12.57;;;;;;;;;;4996195;28;20171;-65
2023/12/08 02:01:31;;;;;;;22.07;13.43;;;;;;;;;;4998132;28;20194;-66
2023/12/08 02:03:56;;;;;;;23.60;13.00;;;;;;;;;;4998912;28;20673;-65
2023/12/08 02:06:21;;;;;;;24.20;14.43;;;;;;;;;;5007211;23;20222;-66
2023/12/08 02:08:47;;;;;;;22.13;13.20;;;;;;;;;;5011829;28;20295;-66
2023/12/08 02:11:13;;;;;;;23.27;12.67;;;;;;;;;;5008722;28;20224;-66
2023/12/08 02:13:38;;;;;;;23.07;13.60;;;;;;;;;;5012647;28;20190;-66
2023/12/08 02:16:10;;;;;;;25.67;13.97;;;;;;;;;;5003792;28;20194;-66
2023/12/08 02:18:37;;;;;;;29.43;15.43;;;;;;;;;;5028298;28;20202;-66
2023/12/08 02:21:03;;;;;;;24.70;14.07;;;;;;;;;;5021388;28;20191;-66
2023/12/08 02:23:28;;;;;;;20.30;12.47;;;;;;;;;;5023610;28;20186;-66
2023/12/08 02:25:53;;;;;;;22.13;12.73;;;;;;;;;;5025248;28;20190;-66
2023/12/08 02:28:18;;;;;;;24.43;14.17;;;;;;;;;;5023477;28;20571;-66
2023/12/08 02:30:44;;;;;;;24.87;14.20;;;;;;;;;;5028984;28;20265;-66
2023/12/08 02:33:14;;;;;;;22.37;13.03;;;;;;;;;;5024691;28;20193;-66
2023/12/08 02:35:40;;;;;;;23.90;13.40;;;;;;;;;;5026591;28;20617;-66
2023/12/08 02:38:06;;;;;;;25.93;15.53;;;;;;;;;;5026342;28;20213;-66
2023/12/08 02:40:32;;;;;;;24.13;14.20;;;;;;;;;;5021104;28;20179;-67
2023/12/08 02:42:57;;;;;;;26.53;13.90;;;;;;;;;;5025953;28;20637;-66
2023/12/08 02:45:22;;;;;;;22.70;13.17;;;;;;;;;;5032262;28;20618;-66
2023/12/08 02:47:47;;;;;;;21.00;13.60;;;;;;;;;;5029936;28;20202;-66
2023/12/08 02:50:13;;;;;;;23.03;14.13;;;;;;;;;;5032807;28;20665;-66
2023/12/08 02:52:38;;;;;;;20.93;12.87;;;;;;;;;;5028679;28;20574;-66
2023/12/08 02:55:03;;;;;;;31.20;14.60;;;;;;;;;;5031371;28;20193;-66
2023/12/08 02:57:28;;;;;;;26.63;14.70;;;;;;;;;;5025384;28;20194;-66
2023/12/08 02:59:54;;;;;;;23.43;14.27;;;;;;;;;;5024654;28;20174;-66
2023/12/08 03:02:19;;;;;;;24.27;13.90;;;;;;;;;;5027330;28;20178;-66
2023/12/08 03:04:44;;;;;;;21.90;14.00;;;;;;;;;;5032535;28;20665;-66
2023/12/08 03:07:09;;;;;;;22.47;14.13;;;;;;;;;;5030671;28;20229;-66
2023/12/08 03:09:34;;;;;;;25.13;14.40;;;;;;;;;;5031910;28;20186;-66
2023/12/08 03:12:00;;;;;;;27.47;13.53;;;;;;;;;;5028463;28;21713;-66
2023/12/08 03:14:25;;;;;;;22.37;13.67;;;;;;;;;;5030756;28;20178;-66
2023/12/08 03:16:50;;;;;;;24.53;13.73;;;;;;;;;;5023165;28;20683;-66
2023/12/08 03:19:16;;;;;;;26.07;13.77;;;;;;;;;;5026534;28;20189;-66
2023/12/08 03:21:41;;;;;;;25.60;14.03;;;;;;;;;;5021976;28;20178;-66
2023/12/08 03:24:06;;;;;;;21.83;13.13;;;;;;;;;;5023372;28;20182;-66
2023/12/08 03:26:31;;;;;;;25.67;14.30;;;;;;;;;;5027627;28;20191;-67
2023/12/08 03:28:56;;;;;;;23.80;14.40;;;;;;;;;;5028313;28;20182;-66
2023/12/08 03:31:26;;;;;;;23.17;13.43;;;;;;;;;;5028157;28;20186;-67
2023/12/08 03:33:51;;;;;;;25.30;14.00;;;;;;;;;;5030906;28;20178;-67
2023/12/08 03:36:16;;;;;;;23.97;13.87;;;;;;;;;;5031605;28;20539;-67
2023/12/08 03:38:41;;;;;;;25.43;13.27;;;;;;;;;;5031260;28;20183;-67
2023/12/08 03:41:06;;;;;;;25.03;13.80;;;;;;;;;;5026719;28;20174;-67
2023/12/08 03:43:32;;;;;;;24.00;14.47;;;;;;;;;;5020630;28;20179;-66
2023/12/08 03:45:57;;;;;;;23.60;13.67;;;;;;;;;;5028119;28;20277;-67
2023/12/08 03:48:22;;;;;;;22.90;13.83;;;;;;;;;;5030840;28;20198;-67
2023/12/08 03:50:47;;;;;;;23.20;12.73;;;;;;;;;;5031036;28;20537;-67
2023/12/08 03:53:12;;;;;;;22.93;12.70;;;;;;;;;;5029776;28;20297;-67
2023/12/08 03:55:38;;;;;;;27.47;13.53;;;;;;;;;;5030899;28;20182;-67
2023/12/08 03:58:03;;;;;;;22.87;13.30;;;;;;;;;;5028164;28;20190;-66
2023/12/08 04:00:28;;;;;;;23.90;13.97;;;;;;;;;;5025322;28;20190;-67
2023/12/08 04:02:53;;;;;;;22.47;13.60;;;;;;;;;;5021752;28;20544;-66
2023/12/08 04:05:18;;;;;;;25.43;13.67;;;;;;;;;;5029553;28;20189;-66
2023/12/08 04:07:44;;;;;;;23.37;13.93;;;;;;;;;;5030016;28;20267;-67
2023/12/08 04:10:09;;;;;;;23.30;14.60;;;;;;;;;;5026556;28;20175;-67
2023/12/08 04:12:34;;;;;;;25.73;13.67;;;;;;;;;;5029599;28;20198;-67
2023/12/08 04:15:00;;;;;;;27.20;14.43;;;;;;;;;;5029826;28;20624;-67
2023/12/08 04:17:25;;;;;;;25.13;12.63;;;;;;;;;;5029169;28;20190;-67
2023/12/08 04:19:50;;;;;;;25.37;13.10;;;;;;;;;;5023610;28;20188;-67
2023/12/08 04:22:15;;;;;;;23.03;13.53;;;;;;;;;;5024759;28;20183;-67
2023/12/08 04:24:40;;;;;;;25.17;15.00;;;;;;;;;;5023739;28;20186;-67
2023/12/08 04:27:05;;;;;;;22.20;12.80;;;;;;;;;;5020608;28;20611;-67
2023/12/08 04:29:31;;;;;;;27.13;14.77;;;;;;;;;;5021695;28;20221;-66
2023/12/08 04:31:56;;;;;;;25.27;14.90;;;;;;;;;;5029504;28;20289;-67
2023/12/08 04:34:21;;;;;;;22.30;13.77;;;;;;;;;;5030189;28;20261;-67
2023/12/08 04:36:46;;;;;;;21.10;13.00;;;;;;;;;;5030941;28;20734;-67
2023/12/08 04:39:11;;;;;;;24.17;12.97;;;;;;;;;;5028643;28;20200;-67
2023/12/08 04:41:36;;;;;;;29.23;14.43;;;;;;;;;;5030458;28;20210;-67
2023/12/08 04:44:02;;;;;;;22.77;13.70;;;;;;;;;;5028493;28;20536;-67
2023/12/08 04:46:27;;;;;;;25.03;14.50;;;;;;;;;;5023578;28;20229;-67
2023/12/08 04:48:53;;;;;;;22.43;12.77;;;;;;;;;;5025861;28;20183;-66
2023/12/08 04:51:18;;;;;;;22.63;13.17;;;;;;;;;;5024248;28;20818;-66
2023/12/08 04:53:43;;;;;;;25.67;12.73;;;;;;;;;;5029019;28;20178;-66
2023/12/08 04:56:08;;;;;;;25.43;13.30;;;;;;;;;;5024415;28;20178;-66
2023/12/08 04:58:33;;;;;;;20.40;12.37;;;;;;;;;;5028253;28;20255;-66
2023/12/08 05:00:59;;;;;;;23.20;13.80;;;;;;;;;;5029471;28;20186;-66
2023/12/08 05:03:24;;;;;;;23.07;14.43;;;;;;;;;;5030026;28;20225;-66
2023/12/08 05:05:49;;;;;;;23.17;14.27;;;;;;;;;;5029576;28;20332;-66
2023/12/08 05:08:14;;;;;;;23.23;12.83;;;;;;;;;;5019741;28;20299;-67
2023/12/08 05:10:39;;;;;;;22.43;13.87;;;;;;;;;;5028178;28;20208;-66
2023/12/08 05:13:05;;;;;;;24.27;14.33;;;;;;;;;;5029360;28;20222;-66
2023/12/08 05:15:30;;;;;;;21.00;12.70;;;;;;;;;;5027847;28;20212;-66
2023/12/08 05:17:55;;;;;;;23.40;14.10;;;;;;;;;;5027739;28;20194;-66
2023/12/08 05:20:20;;;;;;;22.43;13.13;;;;;;;;;;5024426;28;20186;-66
2023/12/08 05:22:46;;;;;;;21.50;13.50;;;;;;;;;;5025774;28;20178;-66
2023/12/08 05:25:11;;;;;;;25.10;15.30;;;;;;;;;;5024337;28;20665;-67
2023/12/08 05:27:36;;;;;;;20.70;12.77;;;;;;;;;;5025031;28;20737;-67
2023/12/08 05:30:02;;;;;;;26.07;13.13;;;;;;;;;;5023787;28;20270;-67
2023/12/08 05:32:28;;;;;;;21.87;13.23;;;;;;;;;;5025308;28;20210;-67
2023/12/08 05:34:53;;;;;;;25.23;13.73;;;;;;;;;;5022246;28;20178;-67
2023/12/08 05:37:18;;;;;;;27.93;14.50;;;;;;;;;;5028216;28;20281;-67
2023/12/08 05:39:44;;;;;;;27.10;14.23;;;;;;;;;;5029984;28;20672;-67
2023/12/08 05:42:09;;;;;;;23.03;12.97;;;;;;;;;;5021881;28;20187;-67
2023/12/08 05:44:34;;;;;;;21.57;13.30;;;;;;;;;;5029653;28;20185;-66
2023/12/08 05:47:00;;;;;;;23.40;12.33;;;;;;;;;;5027428;28;20708;-66
2023/12/08 05:49:25;;;;;;;24.13;13.87;;;;;;;;;;5028084;28;20188;-65
2023/12/08 05:51:51;;;;;;;27.60;14.23;;;;;;;;;;5031634;28;20312;-65
2023/12/08 05:54:16;;;;;;;24.60;13.77;;;;;;;;;;5033501;28;20205;-66
2023/12/08 05:56:41;;;;;;;24.50;13.77;;;;;;;;;;5033416;28;20226;-65
2023/12/08 05:59:06;;;;;;;25.97;13.43;;;;;;;;;;5030456;28;20609;-65
2023/12/08 06:01:31;;;;;;;20.30;12.60;;;;;;;;;;5024464;28;20639;-65
2023/12/08 06:03:56;;;;;;;28.20;13.67;;;;;;;;;;5027333;28;20178;-66
2023/12/08 06:06:22;;;;;;;23.93;13.63;;;;;;;;;;5032368;28;20162;-66
2023/12/08 06:08:47;;;;;;;22.80;12.37;;;;;;;;;;5029370;28;20185;-67
2023/12/08 06:11:12;;;;;;;22.73;13.00;;;;;;;;;;5033495;28;20180;-66
2023/12/08 06:13:37;;;;;;;23.77;13.00;;;;;;;;;;5032702;28;20237;-66
2023/12/08 06:16:03;;;;;;;24.50;13.47;;;;;;;;;;5031253;28;20185;-66
2023/12/08 06:18:29;;;;;;;24.07;12.90;;;;;;;;;;5028261;28;20606;-67
2023/12/08 06:20:54;;;;;;;21.23;12.43;;;;;;;;;;5023341;28;20178;-67
2023/12/08 06:23:19;;;;;;;21.03;13.43;;;;;;;;;;5027707;28;20261;-67
2023/12/08 06:25:44;;;;;;;26.70;13.03;;;;;;;;;;5019435;28;20179;-66
2023/12/08 06:28:10;;;;;;;22.03;13.13;;;;;;;;;;5027014;28;20247;-66
2023/12/08 06:30:35;;;;;;;21.40;13.70;;;;;;;;;;5032310;28;20561;-67
2023/12/08 06:33:00;;;;;;;18.83;12.23;;;;;;;;;;5033159;28;20194;-66
2023/12/08 06:35:25;;;;;;;18.87;11.37;;;;;;;;;;5029869;28;20174;-67
2023/12/08 06:37:50;;;;;;;23.37;12.57;;;;;;;;;;5031016;28;20195;-66
2023/12/08 06:40:16;;;;;;;20.73;12.70;;;;;;;;;;5031203;28;20657;-67
2023/12/08 06:42:41;;;;;;;20.67;13.07;;;;;;;;;;5026408;28;20244;-66
2023/12/08 06:45:07;;;;;;;20.83;13.10;;;;;;;;;;5024490;28;20174;-66
2023/12/08 06:47:32;;;;;;;24.13;13.37;;;;;;;;;;5029044;28;21259;-66
2023/12/08 06:49:58;;;;;;;26.10;13.97;;;;;;;;;;5032751;28;20201;-66
2023/12/08 06:52:23;;;;;;;23.47;12.80;;;;;;;;;;5029394;28;20217;-66
2023/12/08 06:54:49;;;;;;;23.53;12.93;;;;;;;;;;5031344;28;20178;-66
2023/12/08 06:57:14;;;;;;;23.03;12.97;;;;;;;;;;5028941;28;20721;-66
2023/12/08 06:59:39;;;;;;;22.30;13.30;;;;;;;;;;5031214;28;20206;-67
2023/12/08 07:02:04;;;;;;;24.90;12.70;;;;;;;;;;5023798;28;20182;-66
2023/12/08 07:04:30;;;;;;;26.27;13.80;;;;;;;;;;5027717;28;20589;-66
2023/12/08 07:06:55;;;;;;;23.47;13.47;;;;;;;;;;5022654;28;20210;-66
2023/12/08 07:09:20;;;;;;;21.87;13.27;;;;;;;;;;5026112;28;20559;-66
2023/12/08 07:11:45;;;;;;;23.40;13.23;;;;;;;;;;5024242;28;20210;-67
2023/12/08 07:14:10;;;;;;;22.80;14.27;;;;;;;;;;5027707;28;20310;-66
2023/12/08 07:16:36;;;;;;;26.40;13.73;;;;;;;;;;5018842;28;20194;-67
2023/12/08 07:19:01;;;;;;;26.33;14.97;;;;;;;;;;5032019;28;20170;-66
2023/12/08 07:21:26;;;;;;;28.13;13.87;;;;;;;;;;5026977;28;21316;-66
2023/12/08 07:23:51;;;;;;;22.67;14.47;;;;;;;;;;5021618;28;20217;-66
2023/12/08 07:26:17;;;;;;;24.90;14.73;;;;;;;;;;5022498;28;20167;-66
2023/12/08 07:28:42;;;;;;;25.37;14.37;;;;;;;;;;5018112;28;20177;-66
2023/12/08 07:31:08;;;;;;;30.53;14.63;;;;;;;;;;5027067;28;20170;-67
2023/12/08 07:33:33;;;;;;;26.03;15.07;;;;;;;;;;5032892;28;20202;-67
2023/12/08 07:35:59;;;;;;;24.87;13.73;;;;;;;;;;5033772;28;20243;-66
2023/12/08 07:38:24;;;;;;;31.23;15.00;;;;;;;;;;5033692;28;20219;-66
2023/12/08 07:40:49;;;;;;;26.50;14.00;;;;;;;;;;5028473;28;20221;-66
2023/12/08 07:43:14;;;;;;;29.40;15.40;;;;;;;;;;5024477;28;20186;-66
2023/12/08 07:45:39;;;;;;;31.17;14.57;;;;;;;;;;5021847;28;20558;-66
2023/12/08 07:48:04;;;;;;;31.67;16.10;;;;;;;;;;5025547;28;20236;-66
2023/12/08 07:50:30;;;;;;;29.63;15.13;;;;;;;;;;5022308;28;20186;-66
2023/12/08 07:52:55;;;;;;;29.67;15.13;;;;;;;;;;5027742;28;20248;-66
2023/12/08 07:55:20;;;;;;;30.60;16.63;;;;;;;;;;5020413;28;20170;-66
2023/12/08 07:57:46;;;;;;;34.23;16.20;;;;;;;;;;5023084;28;20285;-65
2023/12/08 08:00:11;;;;;;;30.33;15.70;;;;;;;;;;5018273;28;20174;-66
2023/12/08 08:02:37;;;;;;;31.37;16.47;;;;;;;;;;5022357;28;20236;-66
2023/12/08 08:05:03;;;;;;;29.07;16.07;;;;;;;;;;5022799;28;20178;-66
2023/12/08 08:07:28;;;;;;;30.53;16.47;;;;;;;;;;5047532;23;20229;-68
2023/12/08 08:09:53;;;;;;;32.50;16.80;;;;;;;;;;4982723;28;20715;-67
2023/12/08 08:12:18;;;;;;;37.47;18.40;;;;;;;;;;4986043;28;20200;-68
2023/12/08 08:14:43;;;;;;;33.77;17.70;;;;;;;;;;4989843;28;20218;-68
2023/12/08 08:17:09;;;;;;;37.20;17.03;;;;;;;;;;4989953;28;20219;-69
2023/12/08 08:19:34;;;;;;;40.77;18.50;;;;;;;;;;5008843;28;20174;-66
2023/12/08 08:21:59;;;;;;;44.13;17.40;;;;;;;;;;5011530;28;20229;-68
2023/12/08 08:24:24;;;;;;;47.37;19.07;;;;;;;;;;5008292;28;20213;-68
2023/12/08 08:26:50;;;;;;;46.13;19.83;;;;;;;;;;5002994;28;20248;-68
2023/12/08 08:29:15;;;;;;;37.57;17.00;;;;;;;;;;5009164;28;20233;-68
2023/12/08 08:31:40;;;;;;;40.67;17.63;;;;;;;;;;5008932;28;20179;-69
2023/12/08 08:34:05;;;;;;;30.77;15.53;;;;;;;;;;5000826;28;20238;-68
2023/12/08 08:36:31;;;;;;;31.90;15.50;;;;;;;;;;5010177;28;20237;-68
2023/12/08 08:38:56;;;;;;;33.17;17.57;;;;;;;;;;5002801;28;20189;-69
2023/12/08 08:41:23;;;;;;;40.30;17.10;;;;;;;;;;5008891;28;20175;-69
2023/12/08 08:43:48;;;;;;;31.73;16.53;;;;;;;;;;5006784;28;20262;-68
2023/12/08 08:46:14;;;;;;;44.30;18.70;;;;;;;;;;5006097;28;20266;-68
2023/12/08 08:48:39;;;;;;;35.93;17.20;;;;;;;;;;5005626;28;20248;-68
2023/12/08 08:51:04;;;;;;;43.60;17.87;;;;;;;;;;5008295;28;20621;-68
2023/12/08 08:53:30;;;;;;;45.97;18.23;;;;;;;;;;5005397;28;20233;-68
2023/12/08 08:55:55;;;;;;;38.77;17.83;;;;;;;;;;5004324;28;20171;-68
2023/12/08 08:58:21;;;;;;;34.50;17.30;;;;;;;;;;5004130;28;20222;-68
2023/12/08 09:00:46;;;;;;;42.03;17.83;;;;;;;;;;5004663;28;20167;-68
2023/12/08 09:03:11;;;;;;;34.03;16.23;;;;;;;;;;5009893;28;20555;-68
2023/12/08 09:05:40;;;;;;;39.00;16.17;;;;;;;;;;5004275;28;20195;-68
2023/12/08 09:08:06;;;;;;;45.90;17.53;;;;;;;;;;5005829;28;20687;-68
2023/12/08 09:10:31;;;;;;;33.87;15.80;;;;;;;;;;5005122;28;20188;-69
2023/12/08 09:12:56;;;;;;;36.47;17.20;;;;;;;;;;5007407;28;20215;-69
2023/12/08 09:15:21;;;;;;;31.67;17.80;;;;;;;;;;5002677;28;20167;-68
2023/12/08 09:17:47;;;;;;;44.97;19.67;;;;;;;;;;5013352;28;20730;-68
2023/12/08 09:20:14;;;;;;;31.83;17.50;;;;;;;;;;5004915;28;20183;-68
2023/12/08 09:22:42;;;;;;;41.10;17.87;;;;;;;;;;5008810;28;20218;-68
2023/12/08 09:25:07;;;;;;;39.80;18.63;;;;;;;;;;5006347;28;20179;-69
2023/12/08 09:27:34;;;;;;;41.67;18.03;;;;;;;;;;5010901;28;20745;-68
2023/12/08 09:29:59;;;;;;;38.23;16.87;;;;;;;;;;5002926;28;20187;-68
2023/12/08 09:32:24;;;;;;;37.53;17.77;;;;;;;;;;5011773;28;20707;-68
2023/12/08 09:34:49;;;;;;;43.13;17.53;;;;;;;;;;5007459;28;20171;-68
2023/12/08 09:37:14;;;;;;;31.00;16.20;;;;;;;;;;5007727;28;20199;-67
2023/12/08 09:39:40;;;;;;;33.50;17.30;;;;;;;;;;5009757;28;20226;-68
2023/12/08 09:42:12;;;;;;;38.87;18.17;;;;;;;;;;5008789;28;20210;-68
2023/12/08 09:44:38;;;;;;;44.63;18.57;;;;;;;;;;5006749;28;20282;-67
2023/12/08 09:47:03;;;;;;;35.97;18.20;;;;;;;;;;5012153;28;20737;-68
2023/12/08 09:49:29;;;;;;;51.20;19.23;;;;;;;;;;5010979;28;20190;-68
2023/12/08 09:51:55;;;;;;;50.30;18.27;;;;;;;;;;5009799;28;20249;-68
2023/12/08 09:54:21;;;;;;;50.33;19.10;;;;;;;;;;5008793;28;20498;-68
2023/12/08 09:56:50;;;;;;;44.17;18.83;;;;;;;;;;5011930;28;20389;-68
2023/12/08 09:59:16;;;;;;;42.93;19.37;;;;;;;;;;5009473;28;20168;-68
2023/12/08 10:01:42;;;;;;;41.13;18.80;;;;;;;;;;5004842;28;20209;-68
2023/12/08 10:04:07;;;;;;;44.23;17.83;;;;;;;;;;5009191;28;20259;-69
2023/12/08 10:06:32;;;;;;;41.30;19.67;;;;;;;;;;5010517;28;20309;-68
2023/12/08 10:08:58;;;;;;;49.27;20.40;;;;;;;;;;5009858;28;20689;-68
2023/12/08 10:11:23;;;;;;;47.77;19.83;;;;;;;;;;5006375;28;20214;-69
2023/12/08 10:13:49;;;;;;;46.60;18.60;;;;;;;;;;5011212;28;20218;-69
2023/12/08 10:16:14;;;;;;;38.57;17.27;;;;;;;;;;5010681;28;20182;-68
2023/12/08 10:18:39;;;;;;;41.70;18.63;;;;;;;;;;5032315;28;20752;-69
2023/12/08 10:21:16;;;;;;;36.57;19.50;;;;;;;;;;5011030;28;20175;-69
2023/12/08 10:23:42;;;;;;;43.83;17.23;;;;;;;;;;5010179;28;20193;-69
2023/12/08 10:26:08;;;;;;;35.60;18.10;;;;;;;;;;5006897;28;20183;-69
2023/12/08 10:28:34;;;;;;;35.10;17.20;;;;;;;;;;5005175;28;27798;-69
2023/12/08 10:30:59;;;;;;;49.87;18.77;;;;;;;;;;5004006;28;20179;-69
2023/12/08 10:33:25;;;;;;;45.37;18.67;;;;;;;;;;5004071;28;20203;-68
2023/12/08 10:35:51;;;;;;;38.90;17.27;;;;;;;;;;5007689;28;20175;-68
2023/12/08 10:38:16;;;;;;;53.50;21.27;;;;;;;;;;5011408;28;20198;-68
2023/12/08 10:40:45;;;;;;;40.37;18.43;;;;;;;;;;5010096;28;20186;-66
2023/12/08 10:43:10;;;;;;;50.37;20.30;;;;;;;;;;5011980;28;20178;-67
2023/12/08 10:45:36;;;;;;;46.13;18.80;;;;;;;;;;5008420;28;20179;-66
2023/12/08 10:48:02;;;;;;;45.80;18.83;;;;;;;;;;5009380;28;20218;-66
2023/12/08 10:50:28;;;;;;;50.97;20.60;;;;;;;;;;5010757;28;20292;-67
2023/12/08 10:52:53;;;;;;;45.53;18.87;;;;;;;;;;5009418;28;20607;-67
2023/12/08 10:55:18;;;;;;;45.90;19.77;;;;;;;;;;5007198;28;20210;-68
2023/12/08 10:57:45;;;;;;;44.13;18.87;;;;;;;;;;5010884;28;20285;-68
2023/12/08 11:00:18;;;;;;;41.50;20.27;;;;;;;;;;5007250;28;20534;-68
2023/12/08 11:02:47;;;;;;;41.90;19.67;;;;;;;;;;5015041;28;20183;-65
2023/12/08 11:05:18;;;;;;;53.87;20.37;;;;;;;;;;5003128;28;20612;-67
2023/12/08 11:07:44;;;;;;;40.90;18.73;;;;;;;;;;5015884;28;20222;-67
2023/12/08 11:10:11;;;;;;;45.60;19.63;;;;;;;;;;5007098;28;20282;-67
2023/12/08 11:12:38;;;;;;;41.23;18.93;;;;;;;;;;5016573;28;20642;-66
2023/12/08 11:15:08;;;;;;;48.00;20.10;;;;;;;;;;5011848;28;20210;-67
2023/12/08 11:17:37;;;;;;;48.30;18.97;;;;;;;;;;5009821;28;20222;-67
2023/12/08 11:20:05;;;;;;;46.33;20.73;;;;;;;;;;5012498;28;20203;-67
2023/12/08 11:22:31;;;;;;;47.33;19.20;;;;;;;;;;5008897;28;20651;-67
2023/12/08 11:24:57;;;;;;;53.37;19.97;;;;;;;;;;5010395;28;20191;-68
2023/12/08 11:27:42;;;;;;;49.47;18.17;;;;;;;;;;5010435;28;20237;-67
2023/12/08 11:30:15;;;;;;;54.03;19.70;;;;;;;;;;4999190;28;20209;-68
2023/12/08 11:32:40;;;;;;;53.40;18.80;;;;;;;;;;5008148;28;20206;-68
2023/12/08 11:35:07;;;;;;;44.87;17.33;;;;;;;;;;5006118;28;20178;-67
2023/12/08 11:37:33;;;;;;;40.57;19.33;;;;;;;;;;5002940;28;20278;-67
2023/12/08 11:40:05;;;;;;;46.57;18.20;;;;;;;;;;5006511;28;20619;-68
2023/12/08 11:42:31;;;;;;;53.37;20.70;;;;;;;;;;5003853;28;20187;-67
2023/12/08 11:44:57;;;;;;;49.53;20.13;;;;;;;;;;5004021;28;20554;-66
2023/12/08 11:47:24;;;;;;;39.37;17.53;;;;;;;;;;5004683;28;20643;-66
2023/12/08 11:49:51;;;;;;;43.20;17.43;;;;;;;;;;5018722;28;20657;-66
2023/12/08 11:52:27;;;;;;;45.43;17.43;;;;;;;;;;5009917;28;20206;-66
2023/12/08 11:55:00;;;;;;;42.67;17.67;;;;;;;;;;5010362;28;20178;-66
2023/12/08 11:57:25;;;;;;;43.17;18.80;;;;;;;;;;5010708;28;20582;-66
2023/12/08 11:59:50;;;;;;;44.63;18.70;;;;;;;;;;5007132;28;20190;-67
2023/12/08 12:02:16;;;;;;;52.00;18.40;;;;;;;;;;5006419;28;22330;-66
2023/12/08 12:04:41;;;;;;;47.33;19.10;;;;;;;;;;5009717;28;20269;-67
2023/12/08 12:07:08;;;;;;;45.97;19.40;;;;;;;;;;5009931;28;20559;-67
2023/12/08 12:09:33;;;;;;;53.90;19.70;;;;;;;;;;5008629;28;20539;-67
2023/12/08 12:12:02;;;;;;;48.80;19.43;;;;;;;;;;5007689;28;20219;-68
2023/12/08 12:14:28;;;;;;;49.20;19.30;;;;;;;;;;5001942;28;20179;-68
2023/12/08 12:16:54;;;;;;;49.43;19.93;;;;;;;;;;5007009;28;20337;-68
2023/12/08 12:19:19;;;;;;;48.27;19.87;;;;;;;;;;5004691;28;20277;-67
2023/12/08 12:21:44;;;;;;;46.13;18.37;;;;;;;;;;5007161;28;20175;-67
2023/12/08 12:24:09;;;;;;;54.93;18.93;;;;;;;;;;5007757;28;20194;-68
2023/12/08 12:26:35;;;;;;;45.27;18.93;;;;;;;;;;5009838;28;20217;-67
2023/12/08 12:29:00;;;;;;;65.90;19.33;;;;;;;;;;5006217;28;20721;-67
2023/12/08 12:31:25;;;;;;;53.30;19.77;;;;;;;;;;5009977;28;20185;-67
2023/12/08 12:33:50;;;;;;;50.43;19.10;;;;;;;;;;5005233;28;20800;-67
2023/12/08 12:36:16;;;;;;;52.50;19.83;;;;;;;;;;5004774;28;21061;-67
2023/12/08 12:38:42;;;;;;;63.67;20.87;;;;;;;;;;5009655;28;20222;-67
2023/12/08 12:41:23;;;;;;;59.60;19.43;;;;;;;;;;5006833;28;20262;-67
2023/12/08 12:43:48;;;;;;;70.57;21.17;;;;;;;;;;5006369;28;20190;-67
2023/12/08 12:46:14;;;;;;;42.50;18.13;;;;;;;;;;5014618;28;20187;-67
2023/12/08 12:48:39;;;;;;;52.77;17.97;;;;;;;;;;5006670;28;20199;-67
2023/12/08 12:51:04;;;;;;;56.93;20.17;;;;;;;;;;5007752;28;20966;-67
2023/12/08 12:53:29;;;;;;;49.77;19.03;;;;;;;;;;5003106;28;20211;-67
2023/12/08 12:56:05;;;;;;;52.17;19.03;;;;;;;;;;5003587;28;20258;-67
2023/12/08 12:58:30;;;;;;;60.43;19.83;;;;;;;;;;5006132;28;20229;-67
2023/12/08 13:00:56;;;;;;;52.73;19.07;;;;;;;;;;5009717;28;20198;-68
2023/12/08 13:03:21;;;;;;;66.03;19.83;;;;;;;;;;5002800;28;20174;-68
2023/12/08 13:05:47;;;;;;;62.17;20.27;;;;;;;;;;5008478;28;20186;-65
2023/12/08 13:08:12;;;;;;;58.93;18.10;;;;;;;;;;5003678;28;20214;-67
2023/12/08 13:10:38;;;;;;;68.40;18.77;;;;;;;;;;5006721;28;20892;-68
2023/12/08 13:13:03;;;;;;;52.17;18.27;;;;;;;;;;5009726;28;20198;-67
2023/12/08 13:15:28;;;;;;;48.73;18.80;;;;;;;;;;5010235;28;20569;-67
2023/12/08 13:17:53;;;;;;;68.77;19.17;;;;;;;;;;5007643;28;20209;-66
2023/12/08 13:20:19;;;;;;;42.43;17.47;;;;;;;;;;5007197;28;20225;-67
2023/12/08 13:22:44;;;;;;;49.53;18.53;;;;;;;;;;5004639;28;20183;-67
2023/12/08 13:25:09;;;;;;;70.03;20.83;;;;;;;;;;5008382;28;20183;-68
2023/12/08 13:27:34;;;;;;;58.67;20.63;;;;;;;;;;5002450;28;20209;-68
2023/12/08 13:29:59;;;;;;;71.17;19.13;;;;;;;;;;5007056;28;20187;-67
2023/12/08 13:32:25;;;;;;;53.67;18.17;;;;;;;;;;5002778;28;20310;-67
2023/12/08 13:34:50;;;;;;;51.23;19.27;;;;;;;;;;5011186;28;20210;-67
2023/12/08 13:37:16;;;;;;;63.87;21.67;;;;;;;;;;5007082;28;20285;-68
2023/12/08 13:39:41;;;;;;;68.57;21.30;;;;;;;;;;5007611;28;20646;-68
2023/12/08 13:42:07;;;;;;;62.63;19.80;;;;;;;;;;5008971;28;20179;-68
2023/12/08 13:44:32;;;;;;;60.87;19.60;;;;;;;;;;5005633;28;20249;-66
2023/12/08 13:46:57;;;;;;;70.03;20.90;;;;;;;;;;5006019;28;20203;-68
2023/12/08 13:49:23;;;;;;;65.43;19.50;;;;;;;;;;5006014;28;20710;-67
2023/12/08 13:51:48;;;;;;;49.03;19.47;;;;;;;;;;5009035;28;20187;-67
2023/12/08 13:54:13;;;;;;;51.73;18.83;;;;;;;;;;5003157;28;20273;-67
2023/12/08 13:56:38;;;;;;;49.10;18.60;;;;;;;;;;5006148;28;20677;-67
2023/12/08 13:59:04;;;;;;;48.53;17.93;;;;;;;;;;5004470;28;20206;-67
2023/12/08 14:01:29;;;;;;;45.33;18.40;;;;;;;;;;5002970;28;20229;-65
2023/12/08 14:03:55;;;;;;;47.07;17.10;;;;;;;;;;5009244;28;20572;-66
2023/12/08 14:06:20;;;;;;;49.87;16.57;;;;;;;;;;5008619;28;20179;-66